Memphis, Tennessee
Current Conditions -  °F | °C
As of 7:54 AM on Wednesday 26 Nov 2014 (Local Time) from KMEM Reporting Station
Scattered Clouds Scattered Clouds  
Wind Chill:   Ceiling: Unl
Heat Index:   Visibility: 10mi
Dew Point: -2°   Wind: 5mph
Humidity: 73%   Direction: 180°S
Pressure: 30.13"   Gusts: NA
Location:  35.15°N, 90.05°W
Report Text: KMEM 261354Z 18004KT 10SM SCT200 02/M02 A3013 RMK AO2 SLP205 T00221022 $
Loading
Personal Weather Stations






























Interactive Weather Map New forecast layout! Learn more

10-Day Weather Forecast

Advertisements
Track Severe Weather on mobile